createdAt,value
2023-08-16T00:01:02.419Z,85.626221
2023-08-16T00:02:11.099Z,84.985352
2023-08-16T00:03:20.907Z,84.289551
2023-08-16T00:04:30.499Z,83.752441
2023-08-16T00:05:40.113Z,83.508301
2023-08-16T00:06:49.773Z,83.111572
2023-08-16T00:07:58.424Z,82.8125
2023-08-16T00:09:07.123Z,82.415771
2023-08-16T00:10:15.775Z,82.415771
2023-08-16T00:11:25.508Z,82.318115
2023-08-16T00:12:35.161Z,82.177734
2023-08-16T00:13:42.851Z,82.318115
2023-08-16T00:14:51.507Z,82.714844
2023-08-16T00:16:01.185Z,82.714844
2023-08-16T00:17:10.850Z,82.617188
2023-08-16T00:18:20.532Z,82.415771
2023-08-16T00:19:29.203Z,82.275391
2023-08-16T00:20:38.880Z,82.073975
2023-08-16T00:21:48.511Z,81.774902
2023-08-16T00:22:57.175Z,81.817627
2023-08-16T00:24:05.944Z,82.019043
2023-08-16T00:25:15.552Z,82.019043
2023-08-16T00:26:24.206Z,82.415771
2023-08-16T00:27:32.871Z,82.318115
2023-08-16T00:28:41.511Z,82.513428
2023-08-16T00:29:50.215Z,82.214355
2023-08-16T00:30:59.830Z,82.214355
2023-08-16T00:32:07.544Z,82.415771
2023-08-16T00:33:16.256Z,82.318115
2023-08-16T00:34:25.885Z,82.214355
2023-08-16T00:35:34.552Z,82.214355
2023-08-16T00:36:43.224Z,82.116699
2023-08-16T00:37:52.870Z,82.019043
2023-08-16T00:39:01.517Z,81.817627
2023-08-16T00:40:11.192Z,82.019043
2023-08-16T00:41:18.853Z,82.556152
2023-08-16T00:42:27.529Z,82.751465
2023-08-16T00:43:37.212Z,82.855225
2023-08-16T00:44:46.860Z,82.952881
2023-08-16T00:45:55.572Z,82.751465
2023-08-16T00:47:04.214Z,82.855225
2023-08-16T00:48:11.863Z,82.751465
2023-08-16T00:49:21.559Z,82.855225
2023-08-16T00:50:30.210Z,82.952881
2023-08-16T00:51:37.862Z,82.855225
2023-08-16T00:52:46.540Z,82.653809
2023-08-16T00:53:56.225Z,82.891846
2023-08-16T00:55:04.935Z,82.891846
2023-08-16T00:56:14.617Z,83.093262
2023-08-16T00:57:23.499Z,83.831787
2023-08-16T00:58:32.932Z,84.033203
2023-08-16T00:59:42.577Z,83.929443
2023-08-16T01:00:51.418Z,83.831787
2023-08-16T01:02:00.163Z,83.48999
2023-08-16T01:03:08.830Z,83.392334
2023-08-16T01:04:17.438Z,83.093262
2023-08-16T01:05:27.102Z,83.093262
2023-08-16T01:06:35.749Z,83.190918
2023-08-16T01:07:43.476Z,82.995605
2023-08-16T01:08:53.174Z,83.190918
2023-08-16T01:10:02.823Z,83.093262
2023-08-16T01:11:11.478Z,83.428955
2023-08-16T01:12:20.150Z,83.728027
2023-08-16T01:13:28.810Z,83.831787
2023-08-16T01:14:38.469Z,84.16748
2023-08-16T01:15:46.225Z,84.368896
2023-08-16T01:16:53.798Z,84.130859
2023-08-16T01:18:02.514Z,84.069824
2023-08-16T01:19:12.180Z,84.27124
2023-08-16T01:20:20.843Z,84.368896
2023-08-16T01:21:29.530Z,84.27124
2023-08-16T01:22:38.190Z,84.332275
2023-08-16T01:23:47.889Z,84.710693
2023-08-16T01:24:57.594Z,85.748291
2023-08-16T01:26:05.239Z,85.211182
2023-08-16T01:27:14.909Z,85.107422
2023-08-16T01:28:23.612Z,85.211182
2023-08-16T01:29:33.262Z,85.650635
2023-08-16T01:30:41.916Z,86.187744
2023-08-16T01:31:50.601Z,86.993408
2023-08-16T01:33:00.273Z,86.151123
2023-08-16T01:34:08.919Z,85.510254
2023-08-16T01:35:18.403Z,85.107422
2023-08-16T01:36:27.261Z,84.80835
2023-08-16T01:37:35.938Z,85.107422
2023-08-16T01:38:45.580Z,84.80835
2023-08-16T01:39:54.253Z,84.710693
2023-08-16T01:41:03.947Z,85.650635
2023-08-16T01:42:13.580Z,85.107422
2023-08-16T01:43:21.248Z,84.710693
2023-08-16T01:44:28.903Z,84.210205
2023-08-16T01:45:38.593Z,84.210205
2023-08-16T01:46:48.263Z,84.307861
2023-08-16T01:47:57.901Z,84.112549
2023-08-16T01:49:06.630Z,83.868408
2023-08-16T01:50:15.298Z,84.307861
2023-08-16T01:51:24.941Z,84.649658
2023-08-16T01:52:32.604Z,84.613037
2023-08-16T01:53:40.276Z,84.613037
2023-08-16T01:54:49.961Z,84.94873
2023-08-16T01:55:58.604Z,85.693359
2023-08-16T01:57:07.331Z,86.334229
2023-08-16T01:58:16.931Z,85.888672
2023-08-16T01:59:26.624Z,85.247803
2023-08-16T02:00:36.294Z,85.290527
2023-08-16T02:01:42.970Z,84.94873
2023-08-16T02:02:51.671Z,85.089111
2023-08-16T02:04:01.279Z,84.94873
2023-08-16T02:05:09.930Z,84.613037
2023-08-16T02:06:18.629Z,84.307861
2023-08-16T02:07:27.272Z,83.911133
2023-08-16T02:08:35.925Z,83.508301
2023-08-16T02:09:45.640Z,84.692383
2023-08-16T02:10:54.319Z,84.893799
2023-08-16T02:12:02.969Z,84.893799
2023-08-16T02:13:12.654Z,85.089111
2023-08-16T02:14:22.284Z,84.893799
2023-08-16T02:15:30.996Z,84.588623
2023-08-16T02:16:38.622Z,85.870361
2023-08-16T02:17:47.301Z,87.213135
2023-08-16T02:18:56.997Z,87.713623
2023-08-16T02:20:05.717Z,87.414551
2023-08-16T02:21:14.449Z,87.957764
2023-08-16T02:22:24.960Z,87.615967
2023-08-16T02:23:34.778Z,86.871338
2023-08-16T02:24:43.467Z,86.712646
2023-08-16T02:25:52.121Z,86.175537
2023-08-16T02:27:00.767Z,86.37085
2023-08-16T02:28:10.433Z,87.017822
2023-08-16T02:29:18.133Z,86.37085
2023-08-16T02:30:26.783Z,86.273193
2023-08-16T02:31:36.486Z,85.974121
2023-08-16T02:32:46.150Z,86.071777
2023-08-16T02:33:55.827Z,86.071777
2023-08-16T02:35:05.482Z,85.974121
2023-08-16T02:36:15.147Z,85.430908
2023-08-16T02:37:25.017Z,84.893799
2023-08-16T02:38:34.484Z,84.25293
2023-08-16T02:39:43.147Z,83.453369
2023-08-16T02:40:52.829Z,83.453369
2023-08-16T02:42:02.502Z,83.050537
2023-08-16T02:43:11.179Z,83.251953
2023-08-16T02:44:18.838Z,83.251953
2023-08-16T02:45:28.561Z,83.392334
2023-08-16T02:46:37.287Z,84.088135
2023-08-16T02:47:46.935Z,83.850098
2023-08-16T02:48:55.572Z,83.551025
2023-08-16T02:50:05.236Z,83.312988
2023-08-16T02:51:14.882Z,83.013916
2023-08-16T02:52:24.597Z,83.013916
2023-08-16T02:53:34.212Z,82.910156
2023-08-16T02:54:41.864Z,82.714844
2023-08-16T02:55:50.516Z,82.409668
2023-08-16T02:57:00.192Z,82.550049
2023-08-16T02:58:09.839Z,82.653809
2023-08-16T02:59:19.543Z,82.452393
2023-08-16T03:00:28.213Z,82.452393
2023-08-16T03:01:37.894Z,82.354736
2023-08-16T03:02:47.606Z,82.250977
2023-08-16T03:03:56.188Z,82.250977
2023-08-16T03:05:04.845Z,82.049561
2023-08-16T03:06:14.528Z,81.854248
2023-08-16T03:07:24.394Z,81.750488
2023-08-16T03:08:32.832Z,81.750488
2023-08-16T03:09:42.501Z,81.951904
2023-08-16T03:10:51.229Z,81.854248
2023-08-16T03:12:00.910Z,81.854248
2023-08-16T03:13:09.645Z,81.591797
2023-08-16T03:14:18.296Z,81.488037
2023-08-16T03:15:27.958Z,81.689453
2023-08-16T03:16:37.726Z,81.689453
2023-08-16T03:17:47.395Z,81.988525
2023-08-16T03:18:57.032Z,82.189941
2023-08-16T03:20:06.693Z,82.293701
2023-08-16T03:21:16.376Z,82.293701
2023-08-16T03:22:25.114Z,82.293701
2023-08-16T03:23:33.710Z,82.189941
2023-08-16T03:24:43.407Z,81.988525
2023-08-16T03:25:52.051Z,82.092285
2023-08-16T03:27:00.706Z,81.988525
2023-08-16T03:28:08.438Z,82.293701
2023-08-16T03:29:18.100Z,82.69043
2023-08-16T03:30:27.757Z,82.592773
2023-08-16T03:31:36.434Z,82.293701
2023-08-16T03:32:44.110Z,81.890869
2023-08-16T03:33:53.805Z,81.689453
2023-08-16T03:35:03.452Z,81.530762
2023-08-16T03:36:13.143Z,82.03125
2023-08-16T03:37:22.058Z,82.232666
2023-08-16T03:38:31.542Z,82.733154
2023-08-16T03:39:41.202Z,82.928467
2023-08-16T03:40:48.892Z,82.928467
2023-08-16T03:41:56.581Z,82.733154
2023-08-16T03:43:06.235Z,83.032227
2023-08-16T03:44:14.904Z,83.36792
2023-08-16T03:45:23.668Z,83.770752
2023-08-16T03:46:33.300Z,83.770752
2023-08-16T03:47:42.028Z,83.569336
2023-08-16T03:48:50.697Z,83.47168
2023-08-16T03:49:59.415Z,83.569336
2023-08-16T03:51:08.066Z,83.532715
2023-08-16T03:52:17.897Z,83.331299
2023-08-16T03:53:27.541Z,83.129883
2023-08-16T03:54:36.189Z,82.830811
2023-08-16T03:55:44.851Z,82.531738
2023-08-16T03:56:53.525Z,82.531738
2023-08-16T03:58:03.187Z,82.531738
2023-08-16T03:59:12.878Z,82.330322
2023-08-16T04:00:20.564Z,82.531738
2023-08-16T04:01:30.245Z,82.971191
2023-08-16T04:02:38.929Z,83.270264
2023-08-16T04:03:47.671Z,83.569336
2023-08-16T04:04:57.290Z,84.112549
2023-08-16T04:06:07.043Z,84.649658
2023-08-16T04:07:16.661Z,84.552002
2023-08-16T04:08:24.351Z,85.05249
2023-08-16T04:09:34.041Z,85.296631
2023-08-16T04:10:43.699Z,85.05249
2023-08-16T04:11:53.350Z,84.613037
2023-08-16T04:13:02.020Z,83.868408
2023-08-16T04:14:10.898Z,83.770752
2023-08-16T04:15:19.541Z,83.673096
2023-08-16T04:16:29.214Z,83.673096
2023-08-16T04:17:38.073Z,83.569336
2023-08-16T04:18:46.576Z,83.36792
2023-08-16T04:19:56.308Z,83.36792
2023-08-16T04:21:05.184Z,83.36792
2023-08-16T04:22:13.913Z,83.36792
2023-08-16T04:23:23.559Z,83.709717
2023-08-16T04:24:33.219Z,84.454346
2023-08-16T04:25:41.901Z,84.552002
2023-08-16T04:26:52.078Z,84.411621
2023-08-16T04:27:59.279Z,84.112549
2023-08-16T04:29:08.940Z,84.008789
2023-08-16T04:30:17.593Z,83.868408
2023-08-16T04:31:26.294Z,83.47168
2023-08-16T04:32:35.033Z,83.270264
2023-08-16T04:33:43.650Z,83.068848
2023-08-16T04:34:53.314Z,82.971191
2023-08-16T04:36:02.971Z,83.068848
2023-08-16T04:37:09.626Z,83.172607
2023-08-16T04:38:19.315Z,83.032227
2023-08-16T04:39:28.959Z,83.032227
2023-08-16T04:40:38.746Z,82.928467
2023-08-16T04:41:48.905Z,82.629395
2023-08-16T04:42:58.579Z,82.733154
2023-08-16T04:44:07.223Z,82.928467
2023-08-16T04:45:16.937Z,82.928467
2023-08-16T04:46:25.659Z,82.928467
2023-08-16T04:47:35.355Z,83.032227
2023-08-16T04:48:43.967Z,83.032227
2023-08-16T04:49:53.622Z,83.129883
2023-08-16T04:51:03.299Z,82.891846
2023-08-16T04:52:12.963Z,82.928467
2023-08-16T04:53:20.639Z,83.032227
2023-08-16T04:54:30.342Z,83.331299
2023-08-16T04:55:39.988Z,83.532715
2023-08-16T04:56:48.614Z,84.033203
2023-08-16T04:57:57.270Z,83.789062
2023-08-16T04:59:05.957Z,83.691406
2023-08-16T05:00:15.607Z,83.48999
2023-08-16T05:01:24.365Z,83.48999
2023-08-16T05:02:31.987Z,83.392334
2023-08-16T05:03:41.735Z,83.093262
2023-08-16T05:04:50.464Z,83.48999
2023-08-16T05:05:59.127Z,82.989502
2023-08-16T05:07:08.778Z,82.592773
2023-08-16T05:08:18.497Z,82.592773
2023-08-16T05:09:28.156Z,82.592773
2023-08-16T05:10:35.886Z,82.293701
2023-08-16T05:11:43.515Z,82.592773
2023-08-16T05:12:53.247Z,82.989502
2023-08-16T05:14:02.948Z,83.288574
2023-08-16T05:15:12.651Z,83.154297
2023-08-16T05:16:24.307Z,82.952881
2023-08-16T05:17:30.970Z,82.751465
2023-08-16T05:18:40.610Z,82.550049
2023-08-16T05:19:48.323Z,82.989502
2023-08-16T05:20:56.958Z,82.989502
2023-08-16T05:22:06.623Z,82.751465
2023-08-16T05:23:15.287Z,82.592773
2023-08-16T05:24:25.944Z,82.592773
2023-08-16T05:25:34.631Z,82.788086
2023-08-16T05:26:44.350Z,82.849121
2023-08-16T05:27:54.007Z,82.751465
2023-08-16T05:29:01.642Z,82.788086
2023-08-16T05:30:11.296Z,83.392334
2023-08-16T05:31:20.951Z,82.891846
2023-08-16T05:32:29.707Z,82.653809
2023-08-16T05:33:38.533Z,82.952881
2023-08-16T05:34:46.945Z,82.751465
2023-08-16T05:35:55.620Z,82.952881
2023-08-16T05:37:05.293Z,82.751465
2023-08-16T05:38:14.993Z,82.751465
2023-08-16T05:39:23.635Z,82.653809
2023-08-16T05:40:33.300Z,82.989502
2023-08-16T05:41:41.005Z,83.428955
2023-08-16T05:42:50.681Z,83.831787
2023-08-16T05:44:00.336Z,83.59375
2023-08-16T05:45:09.027Z,83.453369
2023-08-16T05:46:18.940Z,82.910156
2023-08-16T05:47:27.813Z,82.714844
2023-08-16T05:48:36.257Z,82.611084
2023-08-16T05:49:45.916Z,82.714844
2023-08-16T05:50:53.562Z,82.611084
2023-08-16T05:52:02.218Z,82.409668
2023-08-16T05:53:10.895Z,82.409668
2023-08-16T05:54:20.599Z,82.073975
2023-08-16T05:55:30.385Z,81.976318
2023-08-16T05:56:39.914Z,81.976318
2023-08-16T05:57:49.572Z,82.409668
2023-08-16T05:59:00.238Z,83.154297
2023-08-16T06:00:09.977Z,83.013916
2023-08-16T06:01:18.641Z,82.611084
2023-08-16T06:02:28.319Z,82.672119
2023-08-16T06:03:38.582Z,83.013916
2023-08-16T06:04:46.614Z,82.470703
2023-08-16T06:05:56.341Z,82.171631
2023-08-16T06:07:05.034Z,82.653809
2023-08-16T06:08:14.699Z,82.470703
2023-08-16T06:09:23.398Z,82.171631
2023-08-16T06:10:31.071Z,82.012939
2023-08-16T06:11:39.745Z,82.849121
2023-08-16T06:12:49.428Z,81.915283
2023-08-16T06:13:58.099Z,82.653809
2023-08-16T06:15:07.774Z,82.312012
2023-08-16T06:16:16.449Z,82.012939
2023-08-16T06:17:26.405Z,81.774902
2023-08-16T06:18:34.771Z,81.433105
2023-08-16T06:19:43.493Z,81.134033
2023-08-16T06:20:53.178Z,82.073975
2023-08-16T06:22:02.836Z,81.872559
2023-08-16T06:23:11.518Z,80.639648
2023-08-16T06:24:20.235Z,80.236816
2023-08-16T06:25:29.944Z,80.737305
2023-08-16T06:26:40.702Z,81.237793
2023-08-16T06:27:47.383Z,80.895996
2023-08-16T06:28:55.018Z,79.675293
2023-08-16T06:30:04.679Z,81.311035
2023-08-16T06:31:15.824Z,80.578613
2023-08-16T06:32:24.046Z,80.236816
2023-08-16T06:33:32.718Z,80.340576
2023-08-16T06:34:41.369Z,80.102539
2023-08-16T06:35:51.029Z,80.340576
2023-08-16T06:36:59.690Z,80.700684
2023-08-16T06:38:08.930Z,80.358887
2023-08-16T06:39:18.904Z,79.602051
2023-08-16T06:40:28.681Z,79.602051
2023-08-16T06:41:38.275Z,80.102539
2023-08-16T06:42:47.931Z,79.626465
2023-08-16T06:43:55.580Z,79.125977
2023-08-16T06:45:04.307Z,78.826904
2023-08-16T06:46:14.014Z,78.790283
2023-08-16T06:47:23.517Z,78.253174
2023-08-16T06:48:31.968Z,77.954102
2023-08-16T06:49:40.627Z,77.716064
2023-08-16T06:50:49.290Z,76.78833
2023-08-16T06:51:58.990Z,76.190186
2023-08-16T06:53:06.688Z,75.854492
2023-08-16T06:54:14.330Z,74.926758
2023-08-16T06:55:22.998Z,74.926758
2023-08-16T06:56:31.642Z,75.061035
2023-08-16T06:57:41.355Z,75.360107
2023-08-16T06:58:49.992Z,75.854492
2023-08-16T06:59:58.648Z,75.622559
2023-08-16T07:01:08.343Z,74.6521
2023-08-16T07:02:16.036Z,73.596191
2023-08-16T07:03:25.796Z,74.456787
2023-08-16T07:04:35.359Z,73.529053
2023-08-16T07:05:44.010Z,72.796631
2023-08-16T07:06:52.660Z,72.998047
2023-08-16T07:08:01.332Z,72.131348
2023-08-16T07:09:10.089Z,70.74585
2023-08-16T07:10:19.758Z,70.349121
2023-08-16T07:11:28.409Z,70.648193
2023-08-16T07:12:37.059Z,70.874023
2023-08-16T07:13:46.748Z,70.080566
2023-08-16T07:14:56.490Z,69.750977
2023-08-16T07:16:05.168Z,69.952393
2023-08-16T07:17:14.804Z,69.952393
2023-08-16T07:18:24.451Z,69.848633
2023-08-16T07:19:34.181Z,69.488525
2023-08-16T07:20:43.798Z,68.597412
2023-08-16T07:21:51.456Z,68.005371
2023-08-16T07:23:01.126Z,68.005371
2023-08-16T07:24:09.796Z,67.871094
2023-08-16T07:25:19.500Z,67.840576
2023-08-16T07:26:29.151Z,68.499756
2023-08-16T07:27:37.824Z,67.382812
2023-08-16T07:28:47.465Z,66.461182
2023-08-16T07:29:56.111Z,67.181396
2023-08-16T07:31:04.851Z,66.52832
2023-08-16T07:32:14.525Z,65.179443
2023-08-16T07:33:23.241Z,64.556885
2023-08-16T07:34:31.903Z,66.363525
2023-08-16T07:35:41.697Z,65.930176
2023-08-16T07:36:50.375Z,65.570068
2023-08-16T07:38:00.243Z,65.570068
2023-08-16T07:39:07.945Z,64.978027
2023-08-16T07:40:17.741Z,64.654541
2023-08-16T07:41:27.355Z,64.190674
2023-08-16T07:42:37.031Z,63.40332
2023-08-16T07:43:45.716Z,63.537598
2023-08-16T07:44:54.371Z,64.916992
2023-08-16T07:46:04.040Z,63.049316
2023-08-16T07:47:13.715Z,62.554932
2023-08-16T07:48:23.392Z,62.524414
2023-08-16T07:49:31.036Z,62.298584
2023-08-16T07:50:40.721Z,63.513184
2023-08-16T07:51:50.436Z,62.237549
2023-08-16T07:53:00.129Z,62.237549
2023-08-16T07:54:09.782Z,61.938477
2023-08-16T07:55:18.456Z,60.858154
2023-08-16T07:56:28.168Z,61.254883
2023-08-16T07:57:35.864Z,61.865234
2023-08-16T07:58:44.522Z,63.116455
2023-08-16T07:59:54.242Z,62.591553
2023-08-16T08:01:03.041Z,60.986328
2023-08-16T08:02:12.693Z,61.547852
2023-08-16T08:03:21.360Z,60.632324
2023-08-16T08:04:31.016Z,58.47168
2023-08-16T08:05:40.838Z,59.063721
2023-08-16T08:06:49.449Z,58.935547
2023-08-16T08:07:58.291Z,59.259033
2023-08-16T08:09:07.826Z,59.942627
2023-08-16T08:10:16.476Z,59.942627
2023-08-16T08:11:25.336Z,60.50415
2023-08-16T08:12:35.045Z,59.100342
2023-08-16T08:13:44.749Z,59.173584
2023-08-16T08:14:54.412Z,58.233643
2023-08-16T08:16:03.204Z,61.016846
2023-08-16T08:17:11.936Z,59.313965
2023-08-16T08:18:21.620Z,59.613037
2023-08-16T08:19:30.279Z,58.135986
2023-08-16T08:20:38.948Z,59.313965
2023-08-16T08:21:47.678Z,61.413574
2023-08-16T08:22:57.375Z,60.467529
2023-08-16T08:24:07.169Z,59.747314
2023-08-16T08:25:16.761Z,59.161377
2023-08-16T08:26:24.408Z,59.58252
2023-08-16T08:27:34.100Z,60.198975
2023-08-16T08:28:43.790Z,60.467529
2023-08-16T08:29:52.488Z,59.521484
2023-08-16T08:31:02.233Z,59.393311
2023-08-16T08:32:10.892Z,58.483887
2023-08-16T08:33:20.571Z,57.696533
2023-08-16T08:34:28.346Z,58.850098
2023-08-16T08:35:37.012Z,56.622314
2023-08-16T08:36:47.880Z,57.208252
2023-08-16T08:37:56.502Z,58.355713
2023-08-16T08:39:06.252Z,57.574463
2023-08-16T08:40:15.942Z,56.817627
2023-08-16T08:41:31.310Z,57.281494
2023-08-16T08:42:36.349Z,58.624268
2023-08-16T08:43:59.207Z,57.714844
2023-08-16T08:44:55.649Z,56.018066
2023-08-16T08:46:05.407Z,55.487061
2023-08-16T08:47:16.823Z,57.110596
2023-08-16T08:48:23.657Z,57.824707
2023-08-16T08:49:33.324Z,58.972168
2023-08-16T08:50:40.976Z,57.281494
2023-08-16T08:51:48.666Z,56.268311
2023-08-16T08:52:58.402Z,55.560303
2023-08-16T08:54:07.090Z,55.456543
2023-08-16T08:55:15.795Z,55.682373
2023-08-16T08:56:25.721Z,56.817627
2023-08-16T08:57:35.124Z,56.567383
2023-08-16T08:58:43.813Z,53.918457
2023-08-16T08:59:53.455Z,53.918457
2023-08-16T09:01:00.272Z,53.991699
2023-08-16T09:02:09.912Z,53.33252
2023-08-16T09:03:18.611Z,53.723145
2023-08-16T09:04:27.224Z,54.016113
2023-08-16T09:05:36.863Z,54.901123
2023-08-16T09:06:46.532Z,54.47998
2023-08-16T09:07:56.454Z,54.925537
2023-08-16T09:09:05.099Z,54.559326
2023-08-16T09:10:14.847Z,54.632568
2023-08-16T09:11:24.535Z,55.065918
2023-08-16T09:12:33.283Z,53.527832
2023-08-16T09:13:42.955Z,55.26123
2023-08-16T09:14:51.638Z,55.895996
2023-08-16T09:16:01.323Z,54.864502
2023-08-16T09:17:11.012Z,54.638672
2023-08-16T09:18:20.335Z,53.540039
2023-08-16T09:19:29.364Z,52.539062
2023-08-16T09:20:38.014Z,51.293945
2023-08-16T09:21:47.694Z,52.490234
2023-08-16T09:22:57.410Z,52.685547
2023-08-16T09:24:06.085Z,53.564453
2023-08-16T09:25:15.779Z,54.248047
2023-08-16T09:26:25.476Z,52.441406
2023-08-16T09:27:34.135Z,54.754639
2023-08-16T09:28:43.871Z,53.143311
2023-08-16T09:29:53.514Z,50.390625
2023-08-16T09:31:01.187Z,51.855469
2023-08-16T09:32:16.589Z,52.001953
2023-08-16T09:33:20.479Z,53.22876
2023-08-16T09:35:39.776Z,52.612305
2023-08-16T09:36:48.456Z,54.02832
2023-08-16T09:37:56.117Z,52.270508
2023-08-16T09:39:05.872Z,52.734375
2023-08-16T09:40:14.556Z,52.368164
2023-08-16T09:41:22.280Z,52.929688
2023-08-16T09:42:30.961Z,53.948975
2023-08-16T09:43:40.648Z,52.850342
2023-08-16T09:44:50.361Z,52.142334
2023-08-16T09:46:00.091Z,50.238037
2023-08-16T09:47:07.937Z,52.288818
2023-08-16T09:48:17.643Z,52.362061
2023-08-16T09:49:26.367Z,50.726318
2023-08-16T09:50:35.605Z,50.823975
2023-08-16T09:52:54.328Z,53.405762
2023-08-16T09:54:04.016Z,51.33667
2023-08-16T09:55:12.653Z,50.360107
2023-08-16T09:56:37.486Z,49.969482
2023-08-16T09:57:32.987Z,51.922607
2023-08-16T09:58:41.627Z,51.605225
2023-08-16T09:59:50.281Z,50.067139
2023-08-16T10:01:00.371Z,50.360107
2023-08-16T10:02:13.707Z,51.33667
2023-08-16T10:03:20.271Z,50.848389
2023-08-16T10:07:59.903Z,51.190186
2023-08-16T10:09:09.758Z,52.160645
2023-08-16T10:10:18.418Z,49.267578
2023-08-16T10:11:28.150Z,50.042725
2023-08-16T10:12:37.826Z,51.116943
2023-08-16T10:13:46.516Z,51.165771
2023-08-16T10:14:55.214Z,50.848389
2023-08-16T10:16:04.963Z,50.286865
2023-08-16T10:17:14.580Z,50.67749
2023-08-16T10:18:23.251Z,51.556396
2023-08-16T10:19:31.950Z,51.239014
2023-08-16T10:20:40.601Z,49.951172
2023-08-16T10:21:50.285Z,50.360107
2023-08-16T10:22:59.956Z,51.141357
2023-08-16T10:24:08.686Z,50.43335
2023-08-16T10:25:18.821Z,50.335693
2023-08-16T10:26:28.032Z,48.266602
2023-08-16T10:27:36.695Z,48.4375
2023-08-16T10:28:46.432Z,47.955322
2023-08-16T10:29:55.066Z,47.955322
2023-08-16T10:32:16.430Z,48.510742
2023-08-16T10:33:24.048Z,49.21875
2023-08-16T10:34:33.724Z,49.21875
2023-08-16T10:35:42.529Z,49.121094
2023-08-16T10:36:52.220Z,47.662354
2023-08-16T10:38:01.880Z,47.955322
2023-08-16T10:39:08.616Z,48.632812
2023-08-16T10:40:17.486Z,48.150635
2023-08-16T10:41:27.970Z,48.413086
2023-08-16T10:42:37.648Z,48.101807
2023-08-16T10:43:49.184Z,48.00415
2023-08-16T10:44:55.991Z,47.302246
2023-08-16T10:46:05.742Z,47.20459
2023-08-16T10:47:15.382Z,46.350098
2023-08-16T10:48:23.072Z,46.038818
2023-08-16T10:49:32.780Z,47.418213
2023-08-16T10:50:42.461Z,47.302246
2023-08-16T10:51:51.144Z,48.754883
2023-08-16T10:53:00.810Z,46.136475
2023-08-16T10:54:09.464Z,45.184326
2023-08-16T10:55:18.585Z,44.622803
2023-08-16T10:56:28.215Z,45.53833
2023-08-16T10:57:36.918Z,48.339844
2023-08-16T10:58:44.586Z,49.627686
2023-08-16T10:59:54.262Z,49.432373
2023-08-16T11:01:03.951Z,49.188232
2023-08-16T11:02:13.720Z,50.90332
2023-08-16T11:03:22.349Z,50.90332
2023-08-16T11:04:31.996Z,49.609375
2023-08-16T11:05:41.644Z,50.390625
2023-08-16T11:07:00.410Z,49.780273
2023-08-16T11:08:01.044Z,48.950195
2023-08-16T11:09:10.717Z,48.217773
2023-08-16T11:10:20.393Z,48.876953
2023-08-16T11:11:29.064Z,48.242188
2023-08-16T11:12:38.805Z,47.436523
2023-08-16T11:13:47.466Z,48.168945
2023-08-16T11:14:57.142Z,48.248291
2023-08-16T11:16:05.860Z,46.807861
2023-08-16T11:17:14.491Z,47.76001
2023-08-16T11:18:27.310Z,47.76001
2023-08-16T11:19:33.860Z,47.833252
2023-08-16T11:20:41.555Z,47.344971
2023-08-16T11:21:51.159Z,46.740723
2023-08-16T11:22:59.915Z,47.131348
2023-08-16T11:24:09.612Z,46.911621
2023-08-16T11:25:18.280Z,46.014404
2023-08-16T11:26:25.968Z,46.209717
2023-08-16T11:27:35.651Z,47.375488
2023-08-16T11:28:44.331Z,46.014404
2023-08-16T11:29:53.003Z,46.405029
2023-08-16T11:31:01.683Z,45.916748
2023-08-16T11:32:11.367Z,45.355225
2023-08-16T11:33:21.088Z,47.009277
2023-08-16T11:34:29.783Z,45.166016
2023-08-16T11:35:38.449Z,45.257568
2023-08-16T11:36:48.150Z,45.916748
2023-08-16T11:37:57.787Z,47.155762
2023-08-16T11:39:06.517Z,45.892334
2023-08-16T11:40:15.203Z,47.033691
2023-08-16T11:41:23.863Z,45.214844
2023-08-16T11:42:33.581Z,45.97168
2023-08-16T11:43:41.214Z,46.160889
2023-08-16T11:44:48.917Z,45.483398
2023-08-16T11:45:58.601Z,45.97168
2023-08-16T11:47:08.276Z,44.146729
2023-08-16T11:48:16.976Z,45.507812
2023-08-16T11:49:26.687Z,47.253418
2023-08-16T11:50:35.381Z,47.033691
2023-08-16T11:51:45.101Z,44.610596
2023-08-16T11:52:52.789Z,45.117188
2023-08-16T11:54:00.469Z,45.098877
2023-08-16T11:55:10.160Z,46.478271
2023-08-16T11:56:18.875Z,44.555664
2023-08-16T11:57:28.620Z,45.098877
2023-08-16T11:58:38.392Z,45.288086
2023-08-16T11:59:47.096Z,45.874023
2023-08-16T12:00:56.918Z,44.87915
2023-08-16T12:02:05.590Z,45.147705
2023-08-16T12:03:13.315Z,44.18335
2023-08-16T12:04:23.026Z,44.73877
2023-08-16T12:05:32.694Z,43.963623
2023-08-16T12:06:41.343Z,46.166992
2023-08-16T12:07:50.008Z,45.178223
2023-08-16T12:08:58.815Z,43.920898
2023-08-16T12:10:08.415Z,42.779541
2023-08-16T12:11:16.058Z,43.170166
2023-08-16T12:12:24.811Z,42.974854
2023-08-16T12:13:34.805Z,44.232178
2023-08-16T12:14:43.466Z,44.042969
2023-08-16T12:15:52.138Z,43.145752
2023-08-16T12:17:00.878Z,42.681885
2023-08-16T12:18:09.624Z,44.934082
2023-08-16T12:19:19.320Z,44.543457
2023-08-16T12:20:27.924Z,44.451904
2023-08-16T12:21:36.603Z,43.365479
2023-08-16T12:22:46.321Z,45.031738
2023-08-16T12:23:54.977Z,43.286133
2023-08-16T12:25:03.674Z,43.963623
2023-08-16T12:26:13.295Z,43.908691
2023-08-16T12:27:23.117Z,44.641113
2023-08-16T12:28:32.852Z,44.598389
2023-08-16T12:29:42.554Z,43.682861
2023-08-16T12:30:52.217Z,42.987061
2023-08-16T12:32:01.912Z,42.30957
2023-08-16T12:33:10.539Z,42.156982
2023-08-16T12:34:19.266Z,43.395996
2023-08-16T12:35:28.946Z,42.700195
2023-08-16T12:36:37.615Z,42.773438
2023-08-16T12:37:46.305Z,42.175293
2023-08-16T12:38:55.981Z,42.480469
2023-08-16T12:40:04.640Z,41.61377
2023-08-16T12:41:14.349Z,41.998291
2023-08-16T12:42:24.328Z,42.913818
2023-08-16T12:43:35.715Z,42.120361
2023-08-16T12:44:44.381Z,42.504883
2023-08-16T12:45:53.018Z,43.280029
2023-08-16T12:47:01.713Z,43.621826
2023-08-16T12:48:11.457Z,42.633057
2023-08-16T12:49:20.091Z,42.248535
2023-08-16T12:50:28.767Z,41.571045
2023-08-16T12:51:37.489Z,40.533447
2023-08-16T12:52:47.215Z,42.175293
2023-08-16T12:53:57.023Z,42.29126
2023-08-16T12:55:05.700Z,43.157959
2023-08-16T12:56:14.407Z,43.719482
2023-08-16T12:57:25.868Z,41.882324
2023-08-16T12:58:35.124Z,41.131592
2023-08-16T12:59:51.185Z,41.442871
2023-08-16T13:02:03.380Z,42.773438
2023-08-16T13:03:12.586Z,42.333984
2023-08-16T13:04:35.285Z,42.816162
2023-08-16T13:05:33.737Z,41.656494
2023-08-16T13:08:03.106Z,43.469238
2023-08-16T13:09:04.012Z,43.682861
2023-08-16T13:11:32.794Z,42.987061
2023-08-16T13:12:34.371Z,42.193604
2023-08-16T13:13:43.159Z,43.157959
2023-08-16T13:15:04.392Z,41.033936
2023-08-16T13:16:09.116Z,41.265869
2023-08-16T13:18:25.650Z,41.888428
2023-08-16T13:20:45.437Z,41.699219
2023-08-16T13:21:56.642Z,41.790771
2023-08-16T13:23:10.869Z,41.870117
2023-08-16T13:26:39.204Z,41.61377